createdAt,value
2022-08-10T00:01:52.875Z,1.35
2022-08-10T00:04:23.725Z,1.38
2022-08-10T00:06:54.745Z,1.30
2022-08-10T00:09:21.938Z,1.23
2022-08-10T00:11:48.373Z,1.10
2022-08-10T00:14:14.846Z,1.33
2022-08-10T00:16:41.266Z,1.52
2022-08-10T00:19:07.672Z,1.38
2022-08-10T00:21:34.157Z,1.27
2022-08-10T00:24:00.658Z,1.80
2022-08-10T00:26:27.062Z,1.17
2022-08-10T00:29:13.490Z,1.50
2022-08-10T00:31:58.815Z,1.23
2022-08-10T00:34:29.422Z,1.50
2022-08-10T00:36:56.992Z,1.23
2022-08-10T00:39:23.700Z,1.10
2022-08-10T00:42:06.627Z,1.35
2022-08-10T00:44:37.919Z,1.48
2022-08-10T00:47:04.673Z,1.42
2022-08-10T00:49:31.442Z,1.42
2022-08-10T00:51:57.922Z,1.27
2022-08-10T00:54:25.196Z,1.50
2022-08-10T00:57:16.153Z,1.48
2022-08-10T00:59:59.551Z,1.25
2022-08-10T01:02:25.234Z,1.42
2022-08-10T01:05:00.341Z,1.25
2022-08-10T01:07:41.523Z,1.50
2022-08-10T01:10:07.967Z,1.10
2022-08-10T01:12:55.198Z,1.48
2022-08-10T01:15:28.375Z,1.48
2022-08-10T01:20:32.032Z,1.33
2022-08-10T01:23:04.385Z,1.80
2022-08-10T01:26:12.213Z,1.20
2022-08-10T01:28:38.761Z,1.30
2022-08-10T01:31:05.820Z,1.45
2022-08-10T01:33:58.549Z,1.50
2022-08-10T01:36:35.296Z,1.58
2022-08-10T01:41:29.842Z,1.75
2022-08-10T01:44:23.235Z,1.95
2022-08-10T01:46:56.888Z,1.70
2022-08-10T01:49:24.688Z,2.25
2022-08-10T01:51:52.837Z,1.50
2022-08-10T01:54:20.536Z,1.80
2022-08-10T01:56:48.905Z,1.50
2022-08-10T01:59:18.817Z,1.38
2022-08-10T02:01:47.870Z,1.45
2022-08-10T02:04:16.191Z,1.40
2022-08-10T02:06:47.479Z,1.50
2022-08-10T02:09:15.507Z,1.88
2022-08-10T02:12:06.212Z,2.10
2022-08-10T02:14:33.371Z,1.83
2022-08-10T02:17:01.797Z,2.10
2022-08-10T02:19:29.653Z,1.52
2022-08-10T02:22:34.787Z,1.77
2022-08-10T02:24:44.119Z,1.73
2022-08-10T02:27:11.328Z,1.77
2022-08-10T02:29:38.870Z,1.95
2022-08-10T02:32:09.771Z,1.75
2022-08-10T02:34:39.207Z,1.90
2022-08-10T02:37:10.743Z,1.90
2022-08-10T02:39:39.000Z,1.73
2022-08-10T02:45:18.298Z,1.67
2022-08-10T02:45:26.073Z,2.10
2022-08-10T02:47:57.779Z,1.87
2022-08-10T02:50:32.675Z,1.75
2022-08-10T02:53:01.796Z,1.88
2022-08-10T02:55:32.569Z,2.00
2022-08-10T02:58:16.959Z,2.10
2022-08-10T03:00:46.612Z,2.50
2022-08-10T03:03:17.133Z,2.58
2022-08-10T03:05:44.279Z,1.95
2022-08-10T03:08:12.281Z,2.30
2022-08-10T03:10:41.072Z,1.85
2022-08-10T03:13:09.378Z,1.90
2022-08-10T03:15:37.342Z,2.00
2022-08-10T03:18:05.536Z,2.03
2022-08-10T03:20:39.557Z,1.83
2022-08-10T03:23:13.746Z,1.73
2022-08-10T03:25:40.699Z,1.60
2022-08-10T03:28:07.311Z,1.48
2022-08-10T03:30:34.638Z,1.35
2022-08-10T03:33:02.754Z,1.40
2022-08-10T03:35:29.626Z,1.77
2022-08-10T03:37:59.222Z,1.83
2022-08-10T03:40:44.819Z,1.73
2022-08-10T03:43:22.468Z,2.55
2022-08-10T03:45:54.975Z,2.05
2022-08-10T03:48:23.570Z,2.05
2022-08-10T03:50:52.787Z,2.08
2022-08-10T03:53:24.968Z,1.77
2022-08-10T03:56:28.981Z,2.63
2022-08-10T03:58:53.753Z,1.65
2022-08-10T04:01:21.090Z,2.05
2022-08-10T04:04:12.343Z,1.65
2022-08-10T04:06:41.205Z,1.77
2022-08-10T04:09:07.630Z,1.50
2022-08-10T04:11:34.072Z,1.80
2022-08-10T04:14:00.561Z,1.58
2022-08-10T04:16:27.047Z,1.52
2022-08-10T04:18:53.500Z,2.10
2022-08-10T04:21:31.418Z,1.60
2022-08-10T04:23:58.952Z,1.67
2022-08-10T04:26:25.491Z,1.75
2022-08-10T04:28:52.810Z,1.55
2022-08-10T04:31:19.371Z,1.45
2022-08-10T04:33:48.387Z,1.70
2022-08-10T04:36:16.899Z,2.10
2022-08-10T04:38:43.987Z,2.10
2022-08-10T04:41:11.060Z,1.90
2022-08-10T04:43:37.676Z,2.28
2022-08-10T04:46:04.194Z,2.40
2022-08-10T04:49:01.392Z,2.15
2022-08-10T04:51:26.871Z,2.28
2022-08-10T04:54:06.028Z,1.90
2022-08-10T04:56:37.315Z,1.85
2022-08-10T04:59:05.183Z,1.98
2022-08-10T05:02:13.436Z,1.80
2022-08-10T05:04:36.185Z,1.92
2022-08-10T05:07:10.733Z,2.10
2022-08-10T05:10:03.044Z,1.70
2022-08-10T05:12:24.902Z,1.55
2022-08-10T05:14:52.199Z,1.90
2022-08-10T05:17:22.775Z,1.67
2022-08-10T05:20:04.499Z,1.45
2022-08-10T05:22:33.560Z,1.80
2022-08-10T05:25:00.018Z,1.83
2022-08-10T05:27:26.688Z,1.40
2022-08-10T05:30:01.254Z,1.65
2022-08-10T05:32:29.179Z,2.13
2022-08-10T05:34:55.577Z,1.77
2022-08-10T05:38:09.921Z,1.30
2022-08-10T05:40:09.594Z,1.60
2022-08-10T05:42:36.382Z,1.83
2022-08-10T05:45:03.119Z,1.75
2022-08-10T05:48:41.956Z,1.35
2022-08-10T05:50:16.912Z,2.08
2022-08-10T05:52:43.402Z,1.95
2022-08-10T05:55:09.906Z,1.60
2022-08-10T05:57:36.522Z,1.70
2022-08-10T06:00:34.195Z,1.75
2022-08-10T06:02:54.475Z,1.70
2022-08-10T06:05:23.494Z,1.40
2022-08-10T06:08:06.375Z,2.00
2022-08-10T06:10:35.356Z,1.75
2022-08-10T06:13:27.059Z,2.45
2022-08-10T06:15:57.832Z,1.67
2022-08-10T06:18:24.642Z,1.77
2022-08-10T06:20:51.195Z,1.92
2022-08-10T06:23:18.047Z,1.10
2022-08-10T06:26:11.714Z,1.42
2022-08-10T06:28:32.898Z,1.63
2022-08-10T06:31:00.339Z,1.70
2022-08-10T06:33:28.652Z,1.40
2022-08-10T06:35:56.283Z,1.55
2022-08-10T06:38:23.808Z,2.22
2022-08-10T06:40:53.026Z,2.00
2022-08-10T06:43:21.214Z,1.80
2022-08-10T06:46:07.571Z,1.75
2022-08-10T06:48:41.528Z,1.65
2022-08-10T06:51:11.671Z,1.42
2022-08-10T06:53:53.038Z,1.85
2022-08-10T06:56:36.651Z,1.52
2022-08-10T06:59:41.514Z,1.70
2022-08-10T07:02:10.015Z,1.75
2022-08-10T07:04:44.581Z,1.40
2022-08-10T07:07:15.680Z,1.30
2022-08-10T07:09:43.175Z,1.35
2022-08-10T07:12:09.944Z,1.23
2022-08-10T07:14:44.360Z,1.25
2022-08-10T07:17:15.152Z,1.55
2022-08-10T07:19:49.763Z,0.98
2022-08-10T07:23:01.437Z,1.23
2022-08-10T07:25:06.894Z,1.30
2022-08-10T07:27:40.678Z,1.40
2022-08-10T07:30:20.805Z,1.33
2022-08-10T07:32:48.420Z,0.95
2022-08-10T07:35:15.901Z,1.50
2022-08-10T07:37:49.503Z,1.00
2022-08-10T07:40:17.938Z,1.27
2022-08-10T07:42:46.325Z,1.08
2022-08-10T07:45:13.175Z,1.50
2022-08-10T07:47:53.648Z,1.20
2022-08-10T07:50:22.290Z,1.10
2022-08-10T07:52:49.340Z,1.05
2022-08-10T07:55:17.443Z,1.35
2022-08-10T07:57:46.501Z,1.33
2022-08-10T08:00:13.184Z,1.30
2022-08-10T08:02:50.866Z,0.80
2022-08-10T08:05:38.626Z,1.10
2022-08-10T08:08:07.129Z,1.00
2022-08-10T08:10:34.323Z,1.17
2022-08-10T08:13:01.498Z,0.88
2022-08-10T08:16:17.417Z,1.13
2022-08-10T08:18:20.529Z,1.00
2022-08-10T08:20:51.849Z,1.05
2022-08-10T08:24:06.551Z,1.30
2022-08-10T08:26:06.304Z,1.20
2022-08-10T08:28:34.045Z,1.17
2022-08-10T08:31:00.869Z,1.08
2022-08-10T08:33:42.096Z,0.93
2022-08-10T08:36:09.870Z,0.88
2022-08-10T08:38:36.973Z,1.00
2022-08-10T08:41:22.186Z,0.95
2022-08-10T08:44:07.583Z,1.08
2022-08-10T08:46:42.077Z,1.63
2022-08-10T08:50:08.012Z,1.25
2022-08-10T08:52:18.295Z,0.80
2022-08-10T08:54:56.712Z,1.00
2022-08-10T08:57:49.715Z,1.35
2022-08-10T09:00:14.867Z,1.13
2022-08-10T09:02:54.447Z,1.27
2022-08-10T09:05:21.450Z,1.27
2022-08-10T09:08:06.068Z,1.30
2022-08-10T09:10:38.546Z,1.45
2022-08-10T09:13:09.850Z,1.25
2022-08-10T09:15:45.498Z,0.93
2022-08-10T09:18:27.710Z,1.20
2022-08-10T09:20:58.851Z,1.17
2022-08-10T09:24:02.256Z,1.25
2022-08-10T09:26:38.311Z,1.60
2022-08-10T09:29:12.365Z,0.80
2022-08-10T09:33:05.475Z,1.10
2022-08-10T09:36:29.980Z,0.93
2022-08-10T09:38:02.483Z,0.93
2022-08-10T09:41:01.100Z,1.30
2022-08-10T09:43:35.499Z,1.25
2022-08-10T09:46:22.135Z,0.80
2022-08-10T09:48:57.391Z,0.90
2022-08-10T09:51:46.795Z,1.10
2022-08-10T09:54:13.906Z,1.30
2022-08-10T09:56:46.414Z,1.15
2022-08-10T09:59:29.323Z,1.33
2022-08-10T10:02:18.029Z,0.98
2022-08-10T10:04:59.458Z,1.00
2022-08-10T10:07:28.121Z,1.00
2022-08-10T10:10:03.486Z,1.10
2022-08-10T10:12:29.963Z,1.10
2022-08-10T10:15:24.265Z,0.70
2022-08-10T10:17:57.949Z,1.10
2022-08-10T10:20:28.423Z,1.08
2022-08-10T10:23:13.588Z,1.00
2022-08-10T10:25:50.786Z,1.02
2022-08-10T10:29:06.974Z,1.52
2022-08-10T10:31:27.266Z,1.00
2022-08-10T10:34:13.986Z,1.20
2022-08-10T10:36:42.208Z,1.38
2022-08-10T10:39:09.770Z,1.02
2022-08-10T10:41:57.327Z,0.93
2022-08-10T10:44:24.396Z,1.00
2022-08-10T10:47:09.633Z,1.85
2022-08-10T10:49:58.270Z,1.10
2022-08-10T10:52:33.944Z,0.70
2022-08-10T10:55:09.080Z,1.08
2022-08-10T10:57:59.864Z,1.23
2022-08-10T11:00:29.524Z,1.05
2022-08-10T11:02:58.868Z,1.05
2022-08-10T11:05:40.520Z,1.13
2022-08-10T11:08:27.593Z,1.50
2022-08-10T11:10:58.606Z,1.23
2022-08-10T11:14:25.467Z,1.10
2022-08-10T11:16:36.307Z,1.40
2022-08-10T11:19:26.545Z,1.05
2022-08-10T11:22:36.848Z,1.30
2022-08-10T11:25:06.682Z,1.27
2022-08-10T11:27:44.410Z,1.40
2022-08-10T11:30:15.070Z,1.02
2022-08-10T11:32:44.570Z,1.55
2022-08-10T11:35:17.619Z,1.17
2022-08-10T11:38:28.373Z,0.95
2022-08-10T11:40:44.408Z,1.05
2022-08-10T11:43:19.099Z,0.90
2022-08-10T11:46:07.380Z,1.10
2022-08-10T11:48:54.289Z,1.10
2022-08-10T11:51:26.583Z,1.10
2022-08-10T11:54:05.430Z,1.10
2022-08-10T11:56:37.186Z,1.17
2022-08-10T11:59:22.253Z,0.90
2022-08-10T12:01:50.715Z,1.55
2022-08-10T12:04:18.717Z,1.15
2022-08-10T12:06:55.512Z,0.80
2022-08-10T12:12:58.672Z,0.90
2022-08-10T12:15:34.087Z,1.00
2022-08-10T12:18:03.330Z,1.10
2022-08-10T12:20:31.686Z,1.52
2022-08-10T12:23:07.842Z,1.33
2022-08-10T12:25:57.868Z,1.40
2022-08-10T12:28:49.248Z,0.95
2022-08-10T12:31:17.259Z,1.05
2022-08-10T12:34:01.273Z,1.20
2022-08-10T12:36:33.640Z,0.73
2022-08-10T12:39:00.098Z,1.25
2022-08-10T12:41:44.778Z,1.10
2022-08-10T12:44:14.358Z,0.95
2022-08-10T12:47:01.696Z,0.93
2022-08-10T12:50:23.823Z,1.35
2022-08-10T12:52:52.521Z,1.17
2022-08-10T12:55:19.725Z,1.00
2022-08-10T12:57:50.114Z,1.00
2022-08-10T13:00:19.345Z,0.90
2022-08-10T13:02:48.752Z,0.90
2022-08-10T13:05:16.016Z,0.70
2022-08-10T13:08:25.730Z,0.95
2022-08-10T13:10:31.775Z,0.90
2022-08-10T13:12:59.473Z,0.60
2022-08-10T13:15:49.257Z,0.65
2022-08-10T13:18:22.929Z,0.90
2022-08-10T13:20:53.460Z,1.15
2022-08-10T13:23:24.946Z,1.00
2022-08-10T13:25:52.255Z,1.37
2022-08-10T13:28:37.506Z,1.08
2022-08-10T13:31:16.640Z,0.90
2022-08-10T13:34:39.383Z,0.85
2022-08-10T13:36:40.280Z,0.70
2022-08-10T13:39:07.108Z,0.88
2022-08-10T13:41:41.105Z,0.98
2022-08-10T13:44:09.218Z,0.80
2022-08-10T13:46:40.168Z,1.02
2022-08-10T13:49:08.169Z,1.02
2022-08-10T13:51:57.587Z,0.90
2022-08-10T13:54:24.829Z,0.95
2022-08-10T13:56:51.830Z,1.00
2022-08-10T13:59:18.678Z,0.90
2022-08-10T14:01:50.303Z,0.95
2022-08-10T14:04:18.094Z,1.30
2022-08-10T14:06:50.031Z,1.10
2022-08-10T14:09:17.951Z,1.02
2022-08-10T14:11:48.586Z,0.93
2022-08-10T14:14:19.044Z,1.05
2022-08-10T14:16:45.765Z,0.95
2022-08-10T14:19:14.482Z,1.05
2022-08-10T14:21:41.248Z,0.70
2022-08-10T14:24:19.392Z,0.95
2022-08-10T14:26:47.075Z,1.10
2022-08-10T14:29:19.640Z,0.90
2022-08-10T14:32:01.002Z,0.80
2022-08-10T14:36:15.161Z,1.00
2022-08-10T14:37:22.085Z,0.77
2022-08-10T14:39:51.679Z,0.70
2022-08-10T14:42:27.307Z,0.73
2022-08-10T14:44:56.903Z,0.82
2022-08-10T14:47:52.628Z,0.70
2022-08-10T14:50:15.725Z,0.85
2022-08-10T14:53:00.184Z,0.85
2022-08-10T14:55:26.984Z,0.80
2022-08-10T14:58:16.825Z,0.80
2022-08-10T15:00:43.668Z,0.80
2022-08-10T15:04:01.340Z,0.70
2022-08-10T15:05:59.137Z,0.70
2022-08-10T15:08:29.496Z,1.20
2022-08-10T15:11:03.404Z,0.80
2022-08-10T15:13:33.712Z,0.90
2022-08-10T15:16:12.450Z,0.73
2022-08-10T15:18:57.902Z,0.70
2022-08-10T15:21:35.276Z,0.90
2022-08-10T15:24:14.373Z,0.85
2022-08-10T15:26:51.073Z,0.73
2022-08-10T15:29:25.572Z,0.63
2022-08-10T15:32:11.358Z,0.80
2022-08-10T15:34:56.186Z,0.77
2022-08-10T15:37:40.218Z,0.70
2022-08-10T15:40:20.993Z,0.80
2022-08-10T15:42:55.147Z,1.08
2022-08-10T15:45:24.963Z,0.60
2022-08-10T15:48:03.550Z,0.70
2022-08-10T15:50:41.403Z,0.80
2022-08-10T15:53:16.040Z,0.70
2022-08-10T15:55:51.533Z,0.90
2022-08-10T15:58:20.537Z,0.98
2022-08-10T16:02:04.034Z,0.93
2022-08-10T16:04:08.441Z,1.00
2022-08-10T16:06:56.034Z,0.75
2022-08-10T16:10:23.252Z,0.82
2022-08-10T16:12:14.707Z,0.73
2022-08-10T16:14:44.918Z,1.00
2022-08-10T16:17:12.516Z,0.93
2022-08-10T16:19:47.065Z,0.80
2022-08-10T16:22:36.599Z,1.02
2022-08-10T16:25:01.246Z,0.52
2022-08-10T16:27:30.336Z,0.90
2022-08-10T16:30:01.990Z,0.93
2022-08-10T16:32:30.211Z,1.17
2022-08-10T16:34:57.135Z,0.90
2022-08-10T16:37:29.274Z,0.90
2022-08-10T16:40:17.841Z,0.80
2022-08-10T16:42:48.970Z,0.80
2022-08-10T16:45:18.778Z,1.25
2022-08-10T16:47:46.974Z,0.98
2022-08-10T16:50:15.520Z,1.08
2022-08-10T16:52:43.591Z,1.48
2022-08-10T16:55:23.663Z,1.75
2022-08-10T16:57:59.251Z,1.17
2022-08-10T17:00:26.083Z,0.73
2022-08-10T17:02:54.994Z,0.70
2022-08-10T17:06:11.236Z,0.80
2022-08-10T17:08:10.910Z,0.75
2022-08-10T17:10:38.163Z,1.02
2022-08-10T17:13:06.276Z,0.88
2022-08-10T17:15:33.278Z,0.82
2022-08-10T17:18:01.226Z,0.70
2022-08-10T17:20:33.802Z,1.10
2022-08-10T17:25:48.409Z,0.45
2022-08-10T17:28:34.528Z,0.82
2022-08-10T17:31:06.242Z,1.00
2022-08-10T17:33:58.098Z,0.70
2022-08-10T17:36:27.950Z,1.00
2022-08-10T17:38:55.908Z,0.73
2022-08-10T17:41:24.300Z,1.00
2022-08-10T17:44:02.706Z,0.85
2022-08-10T17:46:32.787Z,0.80
2022-08-10T17:49:00.961Z,1.05
2022-08-10T17:51:30.851Z,1.10
2022-08-10T17:53:58.280Z,1.05
2022-08-10T17:56:25.156Z,0.73
2022-08-10T17:58:53.819Z,0.80
2022-08-10T18:01:41.569Z,1.00
2022-08-10T18:04:12.176Z,1.25
2022-08-10T18:06:41.186Z,0.88
2022-08-10T18:09:17.395Z,0.98
2022-08-10T18:11:46.110Z,1.15
2022-08-10T18:14:12.895Z,0.68
2022-08-10T18:16:41.833Z,1.08
2022-08-10T18:19:12.151Z,0.70
2022-08-10T18:21:39.942Z,1.20
2022-08-10T18:24:15.578Z,0.95
2022-08-10T18:26:43.610Z,1.13
2022-08-10T18:29:13.027Z,0.93
2022-08-10T18:31:45.264Z,1.00
2022-08-10T18:34:15.205Z,0.82
2022-08-10T18:36:43.500Z,0.98
2022-08-10T18:39:12.216Z,0.80
2022-08-10T18:41:39.808Z,0.80
2022-08-10T18:44:31.591Z,0.82
2022-08-10T18:47:00.498Z,0.88
2022-08-10T18:49:31.956Z,1.20
2022-08-10T18:52:12.192Z,1.10
2022-08-10T18:54:45.261Z,1.40
2022-08-10T18:57:27.314Z,1.05
2022-08-10T19:00:07.560Z,0.90
2022-08-10T19:02:49.336Z,0.80
2022-08-10T19:05:32.323Z,1.27
2022-08-10T19:08:02.596Z,0.93
2022-08-10T19:10:47.181Z,0.70
2022-08-10T19:13:18.713Z,1.02
2022-08-10T19:16:10.231Z,1.00
2022-08-10T19:18:53.783Z,1.10
2022-08-10T19:21:27.161Z,1.08
2022-08-10T19:23:53.660Z,1.25
2022-08-10T19:26:44.990Z,1.13
2022-08-10T19:29:09.751Z,1.00
2022-08-10T19:31:49.770Z,1.02
2022-08-10T19:34:31.555Z,1.58
2022-08-10T19:37:01.386Z,0.98
2022-08-10T19:39:33.987Z,1.02
2022-08-10T19:42:31.197Z,1.08
2022-08-10T19:45:03.957Z,1.38
2022-08-10T19:47:45.635Z,1.10
2022-08-10T19:50:21.637Z,1.50
2022-08-10T19:53:10.536Z,1.00
2022-08-10T19:55:48.023Z,1.13
2022-08-10T19:58:32.199Z,1.40
2022-08-10T20:00:58.970Z,1.23
2022-08-10T20:03:45.676Z,1.17
2022-08-10T20:06:18.162Z,1.30
2022-08-10T20:08:52.923Z,1.13
2022-08-10T20:11:46.357Z,1.60
2022-08-10T20:14:22.476Z,1.30
2022-08-10T20:16:50.004Z,1.10
2022-08-10T20:19:52.519Z,1.20
2022-08-10T20:22:19.493Z,1.30
2022-08-10T20:25:01.490Z,1.10
2022-08-10T20:27:59.091Z,1.23
2022-08-10T20:30:23.570Z,1.00
2022-08-10T20:32:53.557Z,1.33
2022-08-10T20:35:23.229Z,1.45
2022-08-10T20:38:03.688Z,1.30
2022-08-10T20:40:47.172Z,1.20
2022-08-10T20:43:35.101Z,1.33
2022-08-10T20:46:13.809Z,1.20
2022-08-10T20:48:46.052Z,1.50
2022-08-10T20:51:18.640Z,1.33
2022-08-10T20:53:49.834Z,1.27
2022-08-10T20:56:35.433Z,1.52
2022-08-10T20:59:08.862Z,1.30
2022-08-10T21:02:07.420Z,1.58
2022-08-10T21:04:47.311Z,1.45
2022-08-10T21:07:44.049Z,1.70
2022-08-10T21:10:09.686Z,1.10
2022-08-10T21:12:55.044Z,1.17
2022-08-10T21:15:41.978Z,1.50
2022-08-10T21:18:12.168Z,1.70
2022-08-10T21:21:02.954Z,1.10
2022-08-10T21:23:37.879Z,1.52
2022-08-10T21:26:29.508Z,0.98
2022-08-10T21:28:56.299Z,1.00
2022-08-10T21:31:43.177Z,1.50
2022-08-10T21:34:13.147Z,1.27
2022-08-10T21:36:39.910Z,1.17
2022-08-10T21:39:42.865Z,1.25
2022-08-10T21:42:28.702Z,1.75
2022-08-10T21:45:47.535Z,1.20
2022-08-10T21:48:46.034Z,1.60
2022-08-10T21:52:04.159Z,1.58
2022-08-10T21:54:53.149Z,1.23
2022-08-10T21:57:43.787Z,1.13
2022-08-10T22:00:30.467Z,1.33
2022-08-10T22:03:16.329Z,1.40
2022-08-10T22:06:11.854Z,1.75
2022-08-10T22:09:01.468Z,2.67
2022-08-10T22:11:48.450Z,1.90
2022-08-10T22:14:41.901Z,1.55
2022-08-10T22:18:04.000Z,1.40
2022-08-10T22:20:41.362Z,1.40
2022-08-10T22:23:39.046Z,1.85
2022-08-10T22:26:44.562Z,1.52
2022-08-10T22:29:52.536Z,1.75
2022-08-10T22:32:55.835Z,1.58
2022-08-10T22:35:49.863Z,1.70
2022-08-10T22:38:44.512Z,1.90
2022-08-10T22:41:37.481Z,1.90
2022-08-10T22:44:22.522Z,2.17
2022-08-10T22:47:08.518Z,1.90
2022-08-10T22:49:34.931Z,1.70
2022-08-10T22:52:11.096Z,1.80
2022-08-10T22:55:34.607Z,1.63
2022-08-10T22:58:19.720Z,2.17
2022-08-10T23:00:58.641Z,1.65
2022-08-10T23:03:27.051Z,1.63
2022-08-10T23:06:03.819Z,2.08
2022-08-10T23:08:48.106Z,1.80
2022-08-10T23:11:21.812Z,1.63
2022-08-10T23:13:49.857Z,1.95
2022-08-10T23:16:40.182Z,1.75
2022-08-10T23:19:13.458Z,2.22
2022-08-10T23:24:31.071Z,1.85
2022-08-10T23:26:58.649Z,2.00
2022-08-10T23:29:39.765Z,2.33
2022-08-10T23:32:30.819Z,2.10
2022-08-10T23:36:29.622Z,1.60
2022-08-10T23:37:46.942Z,1.77
2022-08-10T23:40:15.213Z,1.85
2022-08-10T23:42:44.093Z,2.03
2022-08-10T23:45:52.406Z,1.90
2022-08-10T23:48:19.542Z,1.77
2022-08-10T23:50:59.434Z,2.45
2022-08-10T23:53:30.848Z,1.98
2022-08-10T23:56:01.939Z,1.92
2022-08-10T23:58:39.938Z,1.75
